sensor_id;sensor_type;location;lat;lon;timestamp;P1;durP1;ratioP1;P2;durP2;ratioP2
84794;SDS011;75026;49.184;16.564;2024-03-02T00:01:50;7.80;;;4.63;;
84794;SDS011;75026;49.184;16.564;2024-03-02T00:06:52;7.15;;;4.45;;
84794;SDS011;75026;49.184;16.564;2024-03-02T00:11:55;9.25;;;4.65;;
84794;SDS011;75026;49.184;16.564;2024-03-02T00:16:56;10.10;;;4.85;;
84794;SDS011;75026;49.184;16.564;2024-03-02T00:21:59;9.05;;;4.97;;
84794;SDS011;75026;49.184;16.564;2024-03-02T00:32:12;7.88;;;4.50;;
84794;SDS011;75026;49.184;16.564;2024-03-02T00:37:16;8.40;;;4.75;;
84794;SDS011;75026;49.184;16.564;2024-03-02T00:42:17;8.35;;;4.75;;
84794;SDS011;75026;49.184;16.564;2024-03-02T00:47:18;6.95;;;4.35;;
84794;SDS011;75026;49.184;16.564;2024-03-02T00:52:19;10.10;;;5.68;;
84794;SDS011;75026;49.184;16.564;2024-03-02T00:57:20;8.20;;;4.40;;
84794;SDS011;75026;49.184;16.564;2024-03-02T01:02:20;8.88;;;4.60;;
84794;SDS011;75026;49.184;16.564;2024-03-02T01:07:21;5.95;;;4.15;;
84794;SDS011;75026;49.184;16.564;2024-03-02T01:12:22;7.38;;;4.57;;
84794;SDS011;75026;49.184;16.564;2024-03-02T01:17:23;7.57;;;4.57;;
84794;SDS011;75026;49.184;16.564;2024-03-02T01:22:24;6.03;;;4.30;;
84794;SDS011;75026;49.184;16.564;2024-03-02T01:27:26;7.70;;;4.38;;
84794;SDS011;75026;49.184;16.564;2024-03-02T01:32:27;6.82;;;4.25;;
84794;SDS011;75026;49.184;16.564;2024-03-02T01:37:28;11.90;;;4.60;;
84794;SDS011;75026;49.184;16.564;2024-03-02T01:42:28;7.05;;;4.50;;
84794;SDS011;75026;49.184;16.564;2024-03-02T01:47:31;7.75;;;4.45;;
84794;SDS011;75026;49.184;16.564;2024-03-02T01:52:33;7.10;;;4.20;;
84794;SDS011;75026;49.184;16.564;2024-03-02T01:57:34;8.07;;;4.47;;
84794;SDS011;75026;49.184;16.564;2024-03-02T02:02:35;7.00;;;4.30;;
84794;SDS011;75026;49.184;16.564;2024-03-02T02:07:36;6.55;;;4.15;;
84794;SDS011;75026;49.184;16.564;2024-03-02T02:12:37;7.15;;;4.30;;
84794;SDS011;75026;49.184;16.564;2024-03-02T02:22:52;6.82;;;4.18;;
84794;SDS011;75026;49.184;16.564;2024-03-02T02:27:58;6.68;;;4.18;;
84794;SDS011;75026;49.184;16.564;2024-03-02T02:32:59;6.88;;;4.07;;
84794;SDS011;75026;49.184;16.564;2024-03-02T02:38:00;6.88;;;3.83;;
84794;SDS011;75026;49.184;16.564;2024-03-02T02:43:02;5.85;;;4.03;;
84794;SDS011;75026;49.184;16.564;2024-03-02T02:48:03;6.22;;;4.13;;
84794;SDS011;75026;49.184;16.564;2024-03-02T02:53:04;6.10;;;4.10;;
84794;SDS011;75026;49.184;16.564;2024-03-02T02:58:06;7.20;;;3.95;;
84794;SDS011;75026;49.184;16.564;2024-03-02T03:03:07;6.15;;;4.15;;
84794;SDS011;75026;49.184;16.564;2024-03-02T03:08:08;7.20;;;4.28;;
84794;SDS011;75026;49.184;16.564;2024-03-02T03:13:09;6.30;;;3.85;;
84794;SDS011;75026;49.184;16.564;2024-03-02T03:18:10;5.55;;;3.85;;
84794;SDS011;75026;49.184;16.564;2024-03-02T03:23:13;5.90;;;3.70;;
84794;SDS011;75026;49.184;16.564;2024-03-02T03:28:17;5.75;;;3.80;;
84794;SDS011;75026;49.184;16.564;2024-03-02T03:33:18;8.02;;;4.05;;
84794;SDS011;75026;49.184;16.564;2024-03-02T03:38:19;6.93;;;3.88;;
84794;SDS011;75026;49.184;16.564;2024-03-02T03:43:19;6.47;;;3.67;;
84794;SDS011;75026;49.184;16.564;2024-03-02T03:48:20;5.47;;;3.92;;
84794;SDS011;75026;49.184;16.564;2024-03-02T03:53:21;6.05;;;4.05;;
84794;SDS011;75026;49.184;16.564;2024-03-02T03:58:22;6.38;;;3.70;;
84794;SDS011;75026;49.184;16.564;2024-03-02T04:03:23;7.43;;;4.10;;
84794;SDS011;75026;49.184;16.564;2024-03-02T04:08:24;6.40;;;4.15;;
84794;SDS011;75026;49.184;16.564;2024-03-02T04:13:25;6.15;;;3.88;;
84794;SDS011;75026;49.184;16.564;2024-03-02T04:18:26;5.97;;;3.78;;
84794;SDS011;75026;49.184;16.564;2024-03-02T04:23:27;6.68;;;3.83;;
84794;SDS011;75026;49.184;16.564;2024-03-02T04:28:28;5.55;;;3.75;;
84794;SDS011;75026;49.184;16.564;2024-03-02T04:33:29;5.55;;;3.75;;
84794;SDS011;75026;49.184;16.564;2024-03-02T04:38:29;5.28;;;3.75;;
84794;SDS011;75026;49.184;16.564;2024-03-02T04:43:30;5.18;;;3.60;;
84794;SDS011;75026;49.184;16.564;2024-03-02T04:48:32;7.15;;;4.05;;
84794;SDS011;75026;49.184;16.564;2024-03-02T04:53:33;6.88;;;3.85;;
84794;SDS011;75026;49.184;16.564;2024-03-02T04:58:34;6.15;;;3.83;;
84794;SDS011;75026;49.184;16.564;2024-03-02T05:03:35;5.63;;;3.78;;
84794;SDS011;75026;49.184;16.564;2024-03-02T05:08:36;6.47;;;4.10;;
84794;SDS011;75026;49.184;16.564;2024-03-02T05:13:36;6.10;;;4.18;;
84794;SDS011;75026;49.184;16.564;2024-03-02T05:18:38;6.28;;;4.05;;
84794;SDS011;75026;49.184;16.564;2024-03-02T05:23:39;6.65;;;3.85;;
84794;SDS011;75026;49.184;16.564;2024-03-02T05:28:40;6.43;;;3.83;;
84794;SDS011;75026;49.184;16.564;2024-03-02T05:33:41;6.18;;;4.10;;
84794;SDS011;75026;49.184;16.564;2024-03-02T05:38:42;7.18;;;3.88;;
84794;SDS011;75026;49.184;16.564;2024-03-02T05:43:43;5.45;;;3.50;;
84794;SDS011;75026;49.184;16.564;2024-03-02T05:48:44;5.68;;;3.83;;
84794;SDS011;75026;49.184;16.564;2024-03-02T05:53:44;6.22;;;3.80;;
84794;SDS011;75026;49.184;16.564;2024-03-02T05:58:45;6.25;;;3.63;;
84794;SDS011;75026;49.184;16.564;2024-03-02T06:03:52;5.28;;;3.60;;
84794;SDS011;75026;49.184;16.564;2024-03-02T06:08:52;5.30;;;3.60;;
84794;SDS011;75026;49.184;16.564;2024-03-02T06:13:53;5.30;;;3.53;;
84794;SDS011;75026;49.184;16.564;2024-03-02T06:18:54;5.82;;;3.75;;
84794;SDS011;75026;49.184;16.564;2024-03-02T06:23:55;6.22;;;3.33;;
84794;SDS011;75026;49.184;16.564;2024-03-02T06:28:57;5.38;;;3.47;;
84794;SDS011;75026;49.184;16.564;2024-03-02T06:33:58;6.15;;;3.80;;
84794;SDS011;75026;49.184;16.564;2024-03-02T06:38:58;6.10;;;3.45;;
84794;SDS011;75026;49.184;16.564;2024-03-02T06:43:59;4.90;;;3.47;;
84794;SDS011;75026;49.184;16.564;2024-03-02T06:49:00;5.35;;;3.38;;
84794;SDS011;75026;49.184;16.564;2024-03-02T06:54:02;5.82;;;3.70;;
84794;SDS011;75026;49.184;16.564;2024-03-02T06:59:03;6.32;;;3.90;;
84794;SDS011;75026;49.184;16.564;2024-03-02T07:04:04;5.28;;;3.50;;
84794;SDS011;75026;49.184;16.564;2024-03-02T07:09:07;5.30;;;3.42;;
84794;SDS011;75026;49.184;16.564;2024-03-02T07:14:11;5.35;;;3.80;;
84794;SDS011;75026;49.184;16.564;2024-03-02T07:19:12;6.45;;;3.70;;
84794;SDS011;75026;49.184;16.564;2024-03-02T07:24:13;5.10;;;3.47;;
84794;SDS011;75026;49.184;16.564;2024-03-02T07:29:15;5.43;;;3.58;;
84794;SDS011;75026;49.184;16.564;2024-03-02T07:34:16;4.68;;;3.40;;
84794;SDS011;75026;49.184;16.564;2024-03-02T07:39:16;4.53;;;3.15;;
84794;SDS011;75026;49.184;16.564;2024-03-02T07:44:17;5.22;;;3.15;;
84794;SDS011;75026;49.184;16.564;2024-03-02T07:49:19;5.10;;;3.40;;
84794;SDS011;75026;49.184;16.564;2024-03-02T07:54:20;4.00;;;2.92;;
84794;SDS011;75026;49.184;16.564;2024-03-02T07:59:21;3.97;;;2.85;;
84794;SDS011;75026;49.184;16.564;2024-03-02T08:04:22;5.53;;;3.40;;
84794;SDS011;75026;49.184;16.564;2024-03-02T08:09:23;4.80;;;3.25;;
84794;SDS011;75026;49.184;16.564;2024-03-02T08:14:24;8.40;;;4.50;;
84794;SDS011;75026;49.184;16.564;2024-03-02T08:19:25;9.63;;;5.78;;
84794;SDS011;75026;49.184;16.564;2024-03-02T08:24:26;11.57;;;6.82;;
84794;SDS011;75026;49.184;16.564;2024-03-02T08:29:27;13.15;;;7.10;;
84794;SDS011;75026;49.184;16.564;2024-03-02T08:34:28;12.57;;;7.35;;
84794;SDS011;75026;49.184;16.564;2024-03-02T08:39:29;14.90;;;8.20;;
84794;SDS011;75026;49.184;16.564;2024-03-02T08:44:30;15.38;;;8.98;;
84794;SDS011;75026;49.184;16.564;2024-03-02T08:49:31;17.77;;;9.85;;
84794;SDS011;75026;49.184;16.564;2024-03-02T08:54:31;18.02;;;9.68;;
84794;SDS011;75026;49.184;16.564;2024-03-02T08:59:35;18.80;;;9.25;;
84794;SDS011;75026;49.184;16.564;2024-03-02T09:04:36;16.77;;;8.18;;
84794;SDS011;75026;49.184;16.564;2024-03-02T09:09:38;15.80;;;8.40;;
84794;SDS011;75026;49.184;16.564;2024-03-02T09:14:42;15.55;;;7.97;;
84794;SDS011;75026;49.184;16.564;2024-03-02T09:19:43;14.57;;;8.30;;
84794;SDS011;75026;49.184;16.564;2024-03-02T09:24:44;13.73;;;7.47;;
84794;SDS011;75026;49.184;16.564;2024-03-02T09:29:45;14.30;;;7.65;;
84794;SDS011;75026;49.184;16.564;2024-03-02T09:34:46;14.07;;;7.50;;
84794;SDS011;75026;49.184;16.564;2024-03-02T09:39:48;13.77;;;7.82;;
84794;SDS011;75026;49.184;16.564;2024-03-02T09:44:49;11.70;;;7.10;;
84794;SDS011;75026;49.184;16.564;2024-03-02T09:49:50;11.38;;;7.07;;
84794;SDS011;75026;49.184;16.564;2024-03-02T09:54:51;13.40;;;6.95;;
84794;SDS011;75026;49.184;16.564;2024-03-02T09:59:52;10.80;;;6.93;;
84794;SDS011;75026;49.184;16.564;2024-03-02T10:11:25;16.15;;;7.18;;
84794;SDS011;75026;49.184;16.564;2024-03-02T10:16:37;11.80;;;6.55;;
84794;SDS011;75026;49.184;16.564;2024-03-02T10:27:45;11.70;;;6.45;;
84794;SDS011;75026;49.184;16.564;2024-03-02T10:32:51;10.63;;;6.28;;
84794;SDS011;75026;49.184;16.564;2024-03-02T10:37:53;11.15;;;6.60;;
84794;SDS011;75026;49.184;16.564;2024-03-02T10:42:55;10.85;;;6.43;;
84794;SDS011;75026;49.184;16.564;2024-03-02T10:47:56;8.90;;;6.13;;
84794;SDS011;75026;49.184;16.564;2024-03-02T10:52:58;11.07;;;6.30;;
84794;SDS011;75026;49.184;16.564;2024-03-02T10:57:59;9.77;;;6.13;;
84794;SDS011;75026;49.184;16.564;2024-03-02T11:03:05;13.27;;;5.68;;
84794;SDS011;75026;49.184;16.564;2024-03-02T11:08:12;10.85;;;5.93;;
84794;SDS011;75026;49.184;16.564;2024-03-02T11:13:14;14.47;;;7.03;;
84794;SDS011;75026;49.184;16.564;2024-03-02T11:18:16;14.02;;;8.75;;
84794;SDS011;75026;49.184;16.564;2024-03-02T11:23:17;14.85;;;9.25;;
84794;SDS011;75026;49.184;16.564;2024-03-02T11:28:18;13.57;;;8.75;;
84794;SDS011;75026;49.184;16.564;2024-03-02T11:33:44;15.00;;;8.45;;
84794;SDS011;75026;49.184;16.564;2024-03-02T11:38:45;16.05;;;8.40;;
84794;SDS011;75026;49.184;16.564;2024-03-02T11:43:47;13.20;;;7.93;;
84794;SDS011;75026;49.184;16.564;2024-03-02T11:48:49;14.73;;;8.02;;
84794;SDS011;75026;49.184;16.564;2024-03-02T11:53:50;13.65;;;8.05;;
84794;SDS011;75026;49.184;16.564;2024-03-02T11:58:53;12.98;;;7.63;;
84794;SDS011;75026;49.184;16.564;2024-03-02T12:03:54;11.60;;;7.22;;
84794;SDS011;75026;49.184;16.564;2024-03-02T12:08:56;10.88;;;7.32;;
84794;SDS011;75026;49.184;16.564;2024-03-02T12:14:03;11.77;;;7.18;;
84794;SDS011;75026;49.184;16.564;2024-03-02T12:19:05;13.15;;;6.80;;
84794;SDS011;75026;49.184;16.564;2024-03-02T12:24:06;9.40;;;6.38;;
84794;SDS011;75026;49.184;16.564;2024-03-02T12:29:07;10.82;;;6.90;;
84794;SDS011;75026;49.184;16.564;2024-03-02T12:34:08;11.48;;;7.18;;
84794;SDS011;75026;49.184;16.564;2024-03-02T12:39:09;10.85;;;6.97;;
84794;SDS011;75026;49.184;16.564;2024-03-02T12:44:10;10.82;;;6.78;;
84794;SDS011;75026;49.184;16.564;2024-03-02T12:49:12;10.30;;;6.97;;
84794;SDS011;75026;49.184;16.564;2024-03-02T12:54:14;9.20;;;6.28;;
84794;SDS011;75026;49.184;16.564;2024-03-02T12:59:18;9.57;;;6.63;;
84794;SDS011;75026;49.184;16.564;2024-03-02T13:04:22;10.82;;;6.97;;
84794;SDS011;75026;49.184;16.564;2024-03-02T13:09:26;16.00;;;9.35;;
84794;SDS011;75026;49.184;16.564;2024-03-02T13:14:27;21.67;;;11.13;;
84794;SDS011;75026;49.184;16.564;2024-03-02T13:19:28;22.70;;;11.43;;
84794;SDS011;75026;49.184;16.564;2024-03-02T13:24:31;24.30;;;13.32;;
84794;SDS011;75026;49.184;16.564;2024-03-02T13:29:33;21.58;;;12.70;;
84794;SDS011;75026;49.184;16.564;2024-03-02T13:34:34;19.92;;;13.57;;
84794;SDS011;75026;49.184;16.564;2024-03-02T13:39:35;20.83;;;12.32;;
84794;SDS011;75026;49.184;16.564;2024-03-02T13:44:43;18.65;;;13.00;;
84794;SDS011;75026;49.184;16.564;2024-03-02T13:49:47;24.63;;;12.85;;
84794;SDS011;75026;49.184;16.564;2024-03-02T13:54:49;19.85;;;12.27;;
84794;SDS011;75026;49.184;16.564;2024-03-02T13:59:52;18.85;;;12.10;;
84794;SDS011;75026;49.184;16.564;2024-03-02T14:04:56;18.00;;;11.10;;
84794;SDS011;75026;49.184;16.564;2024-03-02T14:09:57;22.65;;;10.77;;
84794;SDS011;75026;49.184;16.564;2024-03-02T14:14:58;15.10;;;10.18;;
84794;SDS011;75026;49.184;16.564;2024-03-02T14:19:59;15.77;;;10.82;;
84794;SDS011;75026;49.184;16.564;2024-03-02T14:25:00;17.52;;;10.25;;
84794;SDS011;75026;49.184;16.564;2024-03-02T14:30:01;16.65;;;9.88;;
84794;SDS011;75026;49.184;16.564;2024-03-02T14:35:03;15.90;;;10.10;;
84794;SDS011;75026;49.184;16.564;2024-03-02T14:40:04;14.77;;;9.63;;
84794;SDS011;75026;49.184;16.564;2024-03-02T14:45:07;14.23;;;9.38;;
84794;SDS011;75026;49.184;16.564;2024-03-02T14:50:08;14.82;;;9.40;;
84794;SDS011;75026;49.184;16.564;2024-03-02T14:55:10;12.63;;;8.60;;
84794;SDS011;75026;49.184;16.564;2024-03-02T15:00:11;14.88;;;9.20;;
84794;SDS011;75026;49.184;16.564;2024-03-02T15:05:12;15.98;;;9.25;;
84794;SDS011;75026;49.184;16.564;2024-03-02T15:10:13;14.52;;;8.77;;
84794;SDS011;75026;49.184;16.564;2024-03-02T15:15:30;12.98;;;8.77;;
84794;SDS011;75026;49.184;16.564;2024-03-02T15:20:32;14.45;;;8.90;;
84794;SDS011;75026;49.184;16.564;2024-03-02T15:25:32;13.15;;;8.70;;
84794;SDS011;75026;49.184;16.564;2024-03-02T15:30:34;13.60;;;8.63;;
84794;SDS011;75026;49.184;16.564;2024-03-02T15:35:35;11.55;;;8.25;;
84794;SDS011;75026;49.184;16.564;2024-03-02T15:40:36;10.88;;;8.05;;
84794;SDS011;75026;49.184;16.564;2024-03-02T15:45:37;11.98;;;7.82;;
84794;SDS011;75026;49.184;16.564;2024-03-02T15:50:38;11.70;;;7.97;;
84794;SDS011;75026;49.184;16.564;2024-03-02T15:55:39;11.32;;;7.57;;
84794;SDS011;75026;49.184;16.564;2024-03-02T16:00:40;11.50;;;8.02;;
84794;SDS011;75026;49.184;16.564;2024-03-02T16:05:41;11.13;;;7.45;;
84794;SDS011;75026;49.184;16.564;2024-03-02T16:10:42;10.80;;;7.43;;
84794;SDS011;75026;49.184;16.564;2024-03-02T16:15:42;12.02;;;7.78;;
84794;SDS011;75026;49.184;16.564;2024-03-02T16:20:43;11.52;;;7.63;;
84794;SDS011;75026;49.184;16.564;2024-03-02T16:25:44;12.88;;;7.63;;
84794;SDS011;75026;49.184;16.564;2024-03-02T16:30:45;11.48;;;6.82;;
84794;SDS011;75026;49.184;16.564;2024-03-02T16:35:46;10.95;;;6.90;;
84794;SDS011;75026;49.184;16.564;2024-03-02T16:40:49;9.93;;;6.85;;
84794;SDS011;75026;49.184;16.564;2024-03-02T16:45:50;9.85;;;6.93;;
84794;SDS011;75026;49.184;16.564;2024-03-02T16:50:50;10.05;;;6.78;;
84794;SDS011;75026;49.184;16.564;2024-03-02T16:55:51;9.70;;;6.55;;
84794;SDS011;75026;49.184;16.564;2024-03-02T17:00:52;9.80;;;6.55;;
84794;SDS011;75026;49.184;16.564;2024-03-02T17:05:53;10.00;;;6.40;;
84794;SDS011;75026;49.184;16.564;2024-03-02T17:10:55;8.23;;;5.95;;
84794;SDS011;75026;49.184;16.564;2024-03-02T17:15:56;9.18;;;6.68;;
84794;SDS011;75026;49.184;16.564;2024-03-02T17:20:56;9.60;;;6.50;;
84794;SDS011;75026;49.184;16.564;2024-03-02T17:25:57;9.45;;;6.10;;
84794;SDS011;75026;49.184;16.564;2024-03-02T17:30:58;8.40;;;5.88;;
84794;SDS011;75026;49.184;16.564;2024-03-02T17:35:59;8.82;;;6.38;;
84794;SDS011;75026;49.184;16.564;2024-03-02T17:41:00;8.57;;;6.15;;
84794;SDS011;75026;49.184;16.564;2024-03-02T17:46:01;8.68;;;5.82;;
84794;SDS011;75026;49.184;16.564;2024-03-02T17:51:05;14.07;;;5.90;;
84794;SDS011;75026;49.184;16.564;2024-03-02T17:56:11;8.10;;;5.80;;
84794;SDS011;75026;49.184;16.564;2024-03-02T18:01:12;8.43;;;5.97;;
84794;SDS011;75026;49.184;16.564;2024-03-02T18:06:15;9.07;;;6.18;;
84794;SDS011;75026;49.184;16.564;2024-03-02T18:11:16;7.82;;;5.93;;
84794;SDS011;75026;49.184;16.564;2024-03-02T18:16:18;8.93;;;6.18;;
84794;SDS011;75026;49.184;16.564;2024-03-02T18:21:19;8.15;;;5.75;;
84794;SDS011;75026;49.184;16.564;2024-03-02T18:26:20;8.75;;;5.93;;
84794;SDS011;75026;49.184;16.564;2024-03-02T18:31:21;10.98;;;5.53;;
84794;SDS011;75026;49.184;16.564;2024-03-02T18:36:22;9.93;;;5.20;;
84794;SDS011;75026;49.184;16.564;2024-03-02T18:41:23;12.65;;;5.55;;
84794;SDS011;75026;49.184;16.564;2024-03-02T18:46:25;9.48;;;5.93;;
84794;SDS011;75026;49.184;16.564;2024-03-02T18:51:26;12.30;;;5.82;;
84794;SDS011;75026;49.184;16.564;2024-03-02T18:56:27;8.68;;;5.80;;
84794;SDS011;75026;49.184;16.564;2024-03-02T19:01:28;8.35;;;5.78;;
84794;SDS011;75026;49.184;16.564;2024-03-02T19:06:28;8.20;;;5.35;;
84794;SDS011;75026;49.184;16.564;2024-03-02T19:11:29;7.85;;;5.43;;
84794;SDS011;75026;49.184;16.564;2024-03-02T19:16:30;7.47;;;5.45;;
84794;SDS011;75026;49.184;16.564;2024-03-02T19:21:31;7.45;;;5.28;;
84794;SDS011;75026;49.184;16.564;2024-03-02T19:26:32;7.50;;;5.30;;
84794;SDS011;75026;49.184;16.564;2024-03-02T19:31:33;7.20;;;5.30;;
84794;SDS011;75026;49.184;16.564;2024-03-02T19:36:34;6.95;;;4.95;;
84794;SDS011;75026;49.184;16.564;2024-03-02T19:41:35;8.57;;;5.35;;
84794;SDS011;75026;49.184;16.564;2024-03-02T19:46:36;6.57;;;4.93;;
84794;SDS011;75026;49.184;16.564;2024-03-02T19:51:37;8.65;;;5.13;;
84794;SDS011;75026;49.184;16.564;2024-03-02T19:56:38;7.28;;;5.22;;
84794;SDS011;75026;49.184;16.564;2024-03-02T20:01:39;7.57;;;5.20;;
84794;SDS011;75026;49.184;16.564;2024-03-02T20:06:43;6.65;;;4.80;;
84794;SDS011;75026;49.184;16.564;2024-03-02T20:11:44;7.47;;;5.30;;
84794;SDS011;75026;49.184;16.564;2024-03-02T20:16:45;7.50;;;5.05;;
84794;SDS011;75026;49.184;16.564;2024-03-02T20:21:46;6.45;;;4.65;;
84794;SDS011;75026;49.184;16.564;2024-03-02T20:26:47;6.88;;;4.78;;
84794;SDS011;75026;49.184;16.564;2024-03-02T20:31:48;6.40;;;4.63;;
84794;SDS011;75026;49.184;16.564;2024-03-02T20:36:48;7.40;;;4.82;;
84794;SDS011;75026;49.184;16.564;2024-03-02T20:41:49;6.63;;;4.68;;
84794;SDS011;75026;49.184;16.564;2024-03-02T20:46:56;6.72;;;4.38;;
84794;SDS011;75026;49.184;16.564;2024-03-02T20:51:57;8.05;;;4.78;;
84794;SDS011;75026;49.184;16.564;2024-03-02T20:56:58;6.47;;;4.82;;
84794;SDS011;75026;49.184;16.564;2024-03-02T21:01:59;6.20;;;4.07;;
84794;SDS011;75026;49.184;16.564;2024-03-02T21:07:00;6.25;;;4.35;;
84794;SDS011;75026;49.184;16.564;2024-03-02T21:12:03;7.07;;;4.75;;
84794;SDS011;75026;49.184;16.564;2024-03-02T21:17:05;6.07;;;4.20;;
84794;SDS011;75026;49.184;16.564;2024-03-02T21:22:06;7.13;;;4.32;;
84794;SDS011;75026;49.184;16.564;2024-03-02T21:27:07;6.03;;;4.40;;
84794;SDS011;75026;49.184;16.564;2024-03-02T21:32:11;5.60;;;4.40;;
84794;SDS011;75026;49.184;16.564;2024-03-02T21:37:12;6.95;;;4.97;;
84794;SDS011;75026;49.184;16.564;2024-03-02T21:42:12;6.30;;;3.97;;
84794;SDS011;75026;49.184;16.564;2024-03-02T21:47:13;5.72;;;4.40;;
84794;SDS011;75026;49.184;16.564;2024-03-02T21:52:16;5.75;;;4.40;;
84794;SDS011;75026;49.184;16.564;2024-03-02T21:57:18;5.60;;;4.20;;
84794;SDS011;75026;49.184;16.564;2024-03-02T22:02:22;5.73;;;4.23;;
84794;SDS011;75026;49.184;16.564;2024-03-02T22:07:23;7.65;;;4.05;;
84794;SDS011;75026;49.184;16.564;2024-03-02T22:12:24;5.70;;;4.00;;
84794;SDS011;75026;49.184;16.564;2024-03-02T22:17:25;7.25;;;4.00;;
84794;SDS011;75026;49.184;16.564;2024-03-02T22:22:28;5.75;;;4.07;;
84794;SDS011;75026;49.184;16.564;2024-03-02T22:27:29;8.55;;;4.82;;
84794;SDS011;75026;49.184;16.564;2024-03-02T22:32:30;5.40;;;3.75;;
84794;SDS011;75026;49.184;16.564;2024-03-02T22:37:31;6.80;;;4.28;;
84794;SDS011;75026;49.184;16.564;2024-03-02T22:42:32;5.88;;;4.07;;
84794;SDS011;75026;49.184;16.564;2024-03-02T22:47:32;6.15;;;4.10;;
84794;SDS011;75026;49.184;16.564;2024-03-02T22:52:34;5.35;;;3.80;;
84794;SDS011;75026;49.184;16.564;2024-03-02T22:57:36;5.82;;;3.92;;
84794;SDS011;75026;49.184;16.564;2024-03-02T23:02:37;5.82;;;4.05;;
84794;SDS011;75026;49.184;16.564;2024-03-02T23:07:37;6.65;;;4.40;;
84794;SDS011;75026;49.184;16.564;2024-03-02T23:12:38;5.40;;;3.97;;
84794;SDS011;75026;49.184;16.564;2024-03-02T23:17:39;5.32;;;4.03;;
84794;SDS011;75026;49.184;16.564;2024-03-02T23:22:41;6.57;;;4.10;;
84794;SDS011;75026;49.184;16.564;2024-03-02T23:27:43;5.32;;;3.63;;
84794;SDS011;75026;49.184;16.564;2024-03-02T23:32:44;5.40;;;3.83;;
84794;SDS011;75026;49.184;16.564;2024-03-02T23:37:45;5.07;;;3.70;;
84794;SDS011;75026;49.184;16.564;2024-03-02T23:42:46;5.97;;;4.00;;
84794;SDS011;75026;49.184;16.564;2024-03-02T23:47:47;6.07;;;3.97;;
84794;SDS011;75026;49.184;16.564;2024-03-02T23:52:48;5.40;;;3.90;;
84794;SDS011;75026;49.184;16.564;2024-03-02T23:57:49;4.95;;;3.63;;
